sensor_id;sensor_type;location;lat;lon;timestamp;P1;durP1;ratioP1;P2;durP2;ratioP2
20322;SDS011;10319;52.206;20.996;2022-12-07T00:00:37;32.37;;;14.57;;
20322;SDS011;10319;52.206;20.996;2022-12-07T00:03:02;35.87;;;14.97;;
20322;SDS011;10319;52.206;20.996;2022-12-07T00:05:29;35.57;;;15.80;;
20322;SDS011;10319;52.206;20.996;2022-12-07T00:07:54;34.87;;;15.40;;
20322;SDS011;10319;52.206;20.996;2022-12-07T00:10:19;36.77;;;17.00;;
20322;SDS011;10319;52.206;20.996;2022-12-07T00:12:44;36.87;;;15.73;;
20322;SDS011;10319;52.206;20.996;2022-12-07T00:15:09;38.40;;;16.83;;
20322;SDS011;10319;52.206;20.996;2022-12-07T00:17:35;36.43;;;17.20;;
20322;SDS011;10319;52.206;20.996;2022-12-07T00:20:00;36.93;;;16.47;;
20322;SDS011;10319;52.206;20.996;2022-12-07T00:22:25;35.20;;;16.53;;
20322;SDS011;10319;52.206;20.996;2022-12-07T00:24:50;41.33;;;18.50;;
20322;SDS011;10319;52.206;20.996;2022-12-07T00:27:15;38.60;;;17.67;;
20322;SDS011;10319;52.206;20.996;2022-12-07T00:29:41;36.77;;;16.07;;
20322;SDS011;10319;52.206;20.996;2022-12-07T00:32:06;33.80;;;15.27;;
20322;SDS011;10319;52.206;20.996;2022-12-07T00:34:31;40.20;;;17.20;;
20322;SDS011;10319;52.206;20.996;2022-12-07T00:36:56;38.33;;;18.13;;
20322;SDS011;10319;52.206;20.996;2022-12-07T00:39:21;42.10;;;18.17;;
20322;SDS011;10319;52.206;20.996;2022-12-07T00:41:47;39.73;;;17.80;;
20322;SDS011;10319;52.206;20.996;2022-12-07T00:44:12;42.00;;;18.87;;
20322;SDS011;10319;52.206;20.996;2022-12-07T00:46:37;42.23;;;19.50;;
20322;SDS011;10319;52.206;20.996;2022-12-07T00:49:02;45.23;;;20.23;;
20322;SDS011;10319;52.206;20.996;2022-12-07T00:51:28;45.90;;;20.00;;
20322;SDS011;10319;52.206;20.996;2022-12-07T00:53:53;43.37;;;19.47;;
20322;SDS011;10319;52.206;20.996;2022-12-07T00:56:20;42.23;;;18.73;;
20322;SDS011;10319;52.206;20.996;2022-12-07T00:58:52;43.07;;;19.40;;
20322;SDS011;10319;52.206;20.996;2022-12-07T01:01:17;41.60;;;19.43;;
20322;SDS011;10319;52.206;20.996;2022-12-07T01:03:42;44.10;;;19.13;;
20322;SDS011;10319;52.206;20.996;2022-12-07T01:06:08;45.63;;;19.97;;
20322;SDS011;10319;52.206;20.996;2022-12-07T01:08:33;41.77;;;19.50;;
20322;SDS011;10319;52.206;20.996;2022-12-07T01:11:09;42.03;;;19.90;;
20322;SDS011;10319;52.206;20.996;2022-12-07T01:13:34;46.70;;;21.00;;
20322;SDS011;10319;52.206;20.996;2022-12-07T01:16:01;44.63;;;18.97;;
20322;SDS011;10319;52.206;20.996;2022-12-07T01:18:27;42.70;;;18.80;;
20322;SDS011;10319;52.206;20.996;2022-12-07T01:23:27;36.10;;;17.07;;
20322;SDS011;10319;52.206;20.996;2022-12-07T01:25:56;42.03;;;16.40;;
20322;SDS011;10319;52.206;20.996;2022-12-07T01:28:22;40.13;;;16.50;;
20322;SDS011;10319;52.206;20.996;2022-12-07T01:31:00;34.03;;;15.77;;
20322;SDS011;10319;52.206;20.996;2022-12-07T01:33:26;38.50;;;15.60;;
20322;SDS011;10319;52.206;20.996;2022-12-07T01:35:52;35.37;;;15.13;;
20322;SDS011;10319;52.206;20.996;2022-12-07T01:38:17;32.47;;;14.63;;
20322;SDS011;10319;52.206;20.996;2022-12-07T01:40:42;30.30;;;14.37;;
20322;SDS011;10319;52.206;20.996;2022-12-07T01:43:13;30.23;;;13.63;;
20322;SDS011;10319;52.206;20.996;2022-12-07T01:45:40;30.13;;;12.30;;
20322;SDS011;10319;52.206;20.996;2022-12-07T01:48:05;29.53;;;12.90;;
20322;SDS011;10319;52.206;20.996;2022-12-07T01:50:32;27.10;;;11.53;;
20322;SDS011;10319;52.206;20.996;2022-12-07T01:52:58;29.43;;;12.17;;
20322;SDS011;10319;52.206;20.996;2022-12-07T01:55:24;24.77;;;10.43;;
20322;SDS011;10319;52.206;20.996;2022-12-07T01:57:50;29.23;;;11.57;;
20322;SDS011;10319;52.206;20.996;2022-12-07T02:00:17;23.20;;;9.63;;
20322;SDS011;10319;52.206;20.996;2022-12-07T02:05:14;24.40;;;9.27;;
20322;SDS011;10319;52.206;20.996;2022-12-07T02:07:40;21.10;;;8.57;;
20322;SDS011;10319;52.206;20.996;2022-12-07T02:10:15;21.47;;;8.73;;
20322;SDS011;10319;52.206;20.996;2022-12-07T02:12:41;21.63;;;8.53;;
20322;SDS011;10319;52.206;20.996;2022-12-07T02:15:07;21.63;;;8.67;;
20322;SDS011;10319;52.206;20.996;2022-12-07T02:17:45;19.37;;;7.77;;
20322;SDS011;10319;52.206;20.996;2022-12-07T02:20:21;18.80;;;7.20;;
20322;SDS011;10319;52.206;20.996;2022-12-07T02:23:00;20.93;;;8.07;;
20322;SDS011;10319;52.206;20.996;2022-12-07T02:28:12;22.27;;;7.80;;
20322;SDS011;10319;52.206;20.996;2022-12-07T02:30:42;18.30;;;7.30;;
20322;SDS011;10319;52.206;20.996;2022-12-07T02:33:17;18.80;;;7.33;;
20322;SDS011;10319;52.206;20.996;2022-12-07T02:35:49;19.67;;;7.80;;
20322;SDS011;10319;52.206;20.996;2022-12-07T02:40:44;20.37;;;7.33;;
20322;SDS011;10319;52.206;20.996;2022-12-07T02:43:25;19.17;;;7.43;;
20322;SDS011;10319;52.206;20.996;2022-12-07T02:45:52;18.60;;;6.93;;
20322;SDS011;10319;52.206;20.996;2022-12-07T02:48:19;21.63;;;8.10;;
20322;SDS011;10319;52.206;20.996;2022-12-07T02:50:48;21.07;;;7.83;;
20322;SDS011;10319;52.206;20.996;2022-12-07T02:53:35;21.27;;;7.77;;
20322;SDS011;10319;52.206;20.996;2022-12-07T02:56:01;19.93;;;7.30;;
20322;SDS011;10319;52.206;20.996;2022-12-07T03:01:04;17.93;;;6.63;;
20322;SDS011;10319;52.206;20.996;2022-12-07T03:03:33;20.10;;;7.63;;
20322;SDS011;10319;52.206;20.996;2022-12-07T03:06:16;19.67;;;7.73;;
20322;SDS011;10319;52.206;20.996;2022-12-07T03:08:46;21.20;;;8.30;;
20322;SDS011;10319;52.206;20.996;2022-12-07T03:11:19;20.87;;;7.77;;
20322;SDS011;10319;52.206;20.996;2022-12-07T03:13:48;19.70;;;7.63;;
20322;SDS011;10319;52.206;20.996;2022-12-07T03:18:44;19.90;;;7.50;;
20322;SDS011;10319;52.206;20.996;2022-12-07T03:21:11;18.50;;;6.90;;
20322;SDS011;10319;52.206;20.996;2022-12-07T03:23:38;19.90;;;6.93;;
20322;SDS011;10319;52.206;20.996;2022-12-07T03:26:06;19.07;;;6.53;;
20322;SDS011;10319;52.206;20.996;2022-12-07T03:28:35;18.40;;;6.77;;
20322;SDS011;10319;52.206;20.996;2022-12-07T03:31:03;15.83;;;5.47;;
20322;SDS011;10319;52.206;20.996;2022-12-07T03:33:32;16.90;;;5.63;;
20322;SDS011;10319;52.206;20.996;2022-12-07T03:36:03;16.57;;;5.03;;
20322;SDS011;10319;52.206;20.996;2022-12-07T03:38:33;16.33;;;5.40;;
20322;SDS011;10319;52.206;20.996;2022-12-07T03:41:02;14.67;;;5.10;;
20322;SDS011;10319;52.206;20.996;2022-12-07T03:43:31;16.60;;;4.97;;
20322;SDS011;10319;52.206;20.996;2022-12-07T03:48:37;15.77;;;4.50;;
20322;SDS011;10319;52.206;20.996;2022-12-07T03:53:34;14.90;;;4.43;;
20322;SDS011;10319;52.206;20.996;2022-12-07T03:56:00;14.07;;;4.30;;
20322;SDS011;10319;52.206;20.996;2022-12-07T03:58:25;12.97;;;3.93;;
20322;SDS011;10319;52.206;20.996;2022-12-07T04:00:51;14.87;;;4.53;;
20322;SDS011;10319;52.206;20.996;2022-12-07T04:03:16;15.07;;;4.27;;
20322;SDS011;10319;52.206;20.996;2022-12-07T04:05:41;15.23;;;4.50;;
20322;SDS011;10319;52.206;20.996;2022-12-07T04:08:07;13.77;;;4.40;;
20322;SDS011;10319;52.206;20.996;2022-12-07T04:10:32;14.57;;;4.77;;
20322;SDS011;10319;52.206;20.996;2022-12-07T04:12:57;15.27;;;4.47;;
20322;SDS011;10319;52.206;20.996;2022-12-07T04:15:23;15.67;;;4.97;;
20322;SDS011;10319;52.206;20.996;2022-12-07T04:17:48;16.73;;;5.30;;
20322;SDS011;10319;52.206;20.996;2022-12-07T04:20:13;16.53;;;5.63;;
20322;SDS011;10319;52.206;20.996;2022-12-07T04:22:38;18.50;;;5.93;;
20322;SDS011;10319;52.206;20.996;2022-12-07T04:25:04;16.03;;;6.03;;
20322;SDS011;10319;52.206;20.996;2022-12-07T04:27:29;14.90;;;5.57;;
20322;SDS011;10319;52.206;20.996;2022-12-07T04:29:54;14.93;;;5.30;;
20322;SDS011;10319;52.206;20.996;2022-12-07T04:32:20;14.80;;;5.50;;
20322;SDS011;10319;52.206;20.996;2022-12-07T04:34:45;16.47;;;5.40;;
20322;SDS011;10319;52.206;20.996;2022-12-07T04:37:11;15.60;;;4.90;;
20322;SDS011;10319;52.206;20.996;2022-12-07T04:39:36;15.57;;;5.23;;
20322;SDS011;10319;52.206;20.996;2022-12-07T04:42:01;14.50;;;4.70;;
20322;SDS011;10319;52.206;20.996;2022-12-07T04:44:27;13.83;;;4.63;;
20322;SDS011;10319;52.206;20.996;2022-12-07T04:46:53;16.20;;;4.80;;
20322;SDS011;10319;52.206;20.996;2022-12-07T04:49:19;13.10;;;4.20;;
20322;SDS011;10319;52.206;20.996;2022-12-07T04:51:44;14.23;;;4.53;;
20322;SDS011;10319;52.206;20.996;2022-12-07T04:54:10;14.30;;;4.80;;
20322;SDS011;10319;52.206;20.996;2022-12-07T04:56:35;14.80;;;4.90;;
20322;SDS011;10319;52.206;20.996;2022-12-07T04:59:01;14.63;;;4.57;;
20322;SDS011;10319;52.206;20.996;2022-12-07T05:01:26;15.13;;;4.70;;
20322;SDS011;10319;52.206;20.996;2022-12-07T05:03:52;14.33;;;4.60;;
20322;SDS011;10319;52.206;20.996;2022-12-07T05:06:17;13.77;;;4.17;;
20322;SDS011;10319;52.206;20.996;2022-12-07T05:08:43;14.07;;;4.50;;
20322;SDS011;10319;52.206;20.996;2022-12-07T05:11:08;13.37;;;4.43;;
20322;SDS011;10319;52.206;20.996;2022-12-07T05:13:34;13.80;;;4.27;;
20322;SDS011;10319;52.206;20.996;2022-12-07T05:16:00;14.07;;;4.33;;
20322;SDS011;10319;52.206;20.996;2022-12-07T05:18:25;14.37;;;4.30;;
20322;SDS011;10319;52.206;20.996;2022-12-07T05:20:50;14.93;;;4.43;;
20322;SDS011;10319;52.206;20.996;2022-12-07T05:23:16;15.27;;;4.70;;
20322;SDS011;10319;52.206;20.996;2022-12-07T05:25:42;13.63;;;4.40;;
20322;SDS011;10319;52.206;20.996;2022-12-07T05:28:07;14.00;;;4.10;;
20322;SDS011;10319;52.206;20.996;2022-12-07T05:30:32;15.23;;;4.53;;
20322;SDS011;10319;52.206;20.996;2022-12-07T05:32:57;13.70;;;4.27;;
20322;SDS011;10319;52.206;20.996;2022-12-07T05:35:23;13.27;;;4.27;;
20322;SDS011;10319;52.206;20.996;2022-12-07T05:37:48;15.20;;;4.43;;
20322;SDS011;10319;52.206;20.996;2022-12-07T05:40:14;14.10;;;4.60;;
20322;SDS011;10319;52.206;20.996;2022-12-07T05:42:39;14.60;;;4.23;;
20322;SDS011;10319;52.206;20.996;2022-12-07T05:45:05;15.97;;;5.43;;
20322;SDS011;10319;52.206;20.996;2022-12-07T05:47:30;15.07;;;4.87;;
20322;SDS011;10319;52.206;20.996;2022-12-07T05:49:55;14.93;;;5.00;;
20322;SDS011;10319;52.206;20.996;2022-12-07T05:52:21;16.13;;;5.23;;
20322;SDS011;10319;52.206;20.996;2022-12-07T05:54:46;14.90;;;4.97;;
20322;SDS011;10319;52.206;20.996;2022-12-07T05:57:11;14.63;;;4.63;;
20322;SDS011;10319;52.206;20.996;2022-12-07T05:59:36;15.20;;;5.47;;
20322;SDS011;10319;52.206;20.996;2022-12-07T06:02:06;15.73;;;5.03;;
20322;SDS011;10319;52.206;20.996;2022-12-07T06:04:32;14.93;;;4.70;;
20322;SDS011;10319;52.206;20.996;2022-12-07T06:06:57;15.87;;;5.30;;
20322;SDS011;10319;52.206;20.996;2022-12-07T06:09:23;14.90;;;4.77;;
20322;SDS011;10319;52.206;20.996;2022-12-07T06:11:49;16.73;;;5.43;;
20322;SDS011;10319;52.206;20.996;2022-12-07T06:14:32;15.67;;;5.00;;
20322;SDS011;10319;52.206;20.996;2022-12-07T06:16:58;14.17;;;4.50;;
20322;SDS011;10319;52.206;20.996;2022-12-07T06:19:23;15.63;;;5.10;;
20322;SDS011;10319;52.206;20.996;2022-12-07T06:21:48;15.80;;;4.97;;
20322;SDS011;10319;52.206;20.996;2022-12-07T06:24:14;15.37;;;4.90;;
20322;SDS011;10319;52.206;20.996;2022-12-07T06:26:40;17.20;;;5.60;;
20322;SDS011;10319;52.206;20.996;2022-12-07T06:29:05;15.67;;;5.70;;
20322;SDS011;10319;52.206;20.996;2022-12-07T06:31:31;15.43;;;5.47;;
20322;SDS011;10319;52.206;20.996;2022-12-07T06:33:57;15.07;;;5.27;;
20322;SDS011;10319;52.206;20.996;2022-12-07T06:36:22;16.17;;;5.47;;
20322;SDS011;10319;52.206;20.996;2022-12-07T06:38:47;16.40;;;6.03;;
20322;SDS011;10319;52.206;20.996;2022-12-07T06:41:13;16.33;;;6.03;;
20322;SDS011;10319;52.206;20.996;2022-12-07T06:43:38;16.87;;;6.03;;
20322;SDS011;10319;52.206;20.996;2022-12-07T06:46:03;17.43;;;6.07;;
20322;SDS011;10319;52.206;20.996;2022-12-07T06:48:28;16.80;;;6.30;;
20322;SDS011;10319;52.206;20.996;2022-12-07T06:50:54;17.13;;;6.47;;
20322;SDS011;10319;52.206;20.996;2022-12-07T06:53:19;17.10;;;5.73;;
20322;SDS011;10319;52.206;20.996;2022-12-07T06:55:44;16.73;;;5.90;;
20322;SDS011;10319;52.206;20.996;2022-12-07T06:58:09;16.90;;;5.80;;
20322;SDS011;10319;52.206;20.996;2022-12-07T07:00:34;18.23;;;5.60;;
20322;SDS011;10319;52.206;20.996;2022-12-07T07:03:00;16.73;;;6.07;;
20322;SDS011;10319;52.206;20.996;2022-12-07T07:05:25;16.83;;;5.77;;
20322;SDS011;10319;52.206;20.996;2022-12-07T07:07:51;16.37;;;5.83;;
20322;SDS011;10319;52.206;20.996;2022-12-07T07:10:16;15.50;;;5.10;;
20322;SDS011;10319;52.206;20.996;2022-12-07T07:12:41;16.73;;;6.17;;
20322;SDS011;10319;52.206;20.996;2022-12-07T07:15:06;17.67;;;6.13;;
20322;SDS011;10319;52.206;20.996;2022-12-07T07:17:31;16.10;;;5.90;;
20322;SDS011;10319;52.206;20.996;2022-12-07T07:19:57;17.67;;;6.43;;
20322;SDS011;10319;52.206;20.996;2022-12-07T07:22:22;16.73;;;5.97;;
20322;SDS011;10319;52.206;20.996;2022-12-07T07:24:47;18.43;;;6.07;;
20322;SDS011;10319;52.206;20.996;2022-12-07T07:27:13;17.80;;;6.47;;
20322;SDS011;10319;52.206;20.996;2022-12-07T07:29:38;16.87;;;5.73;;
20322;SDS011;10319;52.206;20.996;2022-12-07T07:32:03;17.57;;;6.33;;
20322;SDS011;10319;52.206;20.996;2022-12-07T07:34:28;19.57;;;6.30;;
20322;SDS011;10319;52.206;20.996;2022-12-07T07:36:54;15.97;;;5.60;;
20322;SDS011;10319;52.206;20.996;2022-12-07T07:39:19;17.47;;;6.43;;
20322;SDS011;10319;52.206;20.996;2022-12-07T07:41:44;16.43;;;5.93;;
20322;SDS011;10319;52.206;20.996;2022-12-07T07:44:09;18.17;;;6.40;;
20322;SDS011;10319;52.206;20.996;2022-12-07T07:46:35;16.73;;;6.37;;
20322;SDS011;10319;52.206;20.996;2022-12-07T07:49:00;21.40;;;7.40;;
20322;SDS011;10319;52.206;20.996;2022-12-07T07:51:25;19.50;;;6.97;;
20322;SDS011;10319;52.206;20.996;2022-12-07T07:53:50;18.27;;;6.57;;
20322;SDS011;10319;52.206;20.996;2022-12-07T07:56:16;18.97;;;6.40;;
20322;SDS011;10319;52.206;20.996;2022-12-07T07:58:41;18.80;;;6.93;;
20322;SDS011;10319;52.206;20.996;2022-12-07T08:01:06;18.47;;;6.47;;
20322;SDS011;10319;52.206;20.996;2022-12-07T08:03:31;18.33;;;6.63;;
20322;SDS011;10319;52.206;20.996;2022-12-07T08:05:57;17.40;;;6.90;;
20322;SDS011;10319;52.206;20.996;2022-12-07T08:08:22;18.60;;;6.57;;
20322;SDS011;10319;52.206;20.996;2022-12-07T08:10:47;21.63;;;8.27;;
20322;SDS011;10319;52.206;20.996;2022-12-07T08:13:14;19.83;;;7.23;;
20322;SDS011;10319;52.206;20.996;2022-12-07T08:15:41;18.87;;;7.07;;
20322;SDS011;10319;52.206;20.996;2022-12-07T08:18:07;20.03;;;7.67;;
20322;SDS011;10319;52.206;20.996;2022-12-07T08:20:33;22.63;;;6.90;;
20322;SDS011;10319;52.206;20.996;2022-12-07T08:22:58;19.43;;;7.60;;
20322;SDS011;10319;52.206;20.996;2022-12-07T08:25:24;19.40;;;7.43;;
20322;SDS011;10319;52.206;20.996;2022-12-07T08:27:50;18.97;;;7.57;;
20322;SDS011;10319;52.206;20.996;2022-12-07T08:30:16;23.53;;;8.70;;
20322;SDS011;10319;52.206;20.996;2022-12-07T08:32:41;20.33;;;8.50;;
20322;SDS011;10319;52.206;20.996;2022-12-07T08:35:07;21.67;;;8.67;;
20322;SDS011;10319;52.206;20.996;2022-12-07T08:37:32;22.60;;;9.00;;
20322;SDS011;10319;52.206;20.996;2022-12-07T08:39:58;22.50;;;9.00;;
20322;SDS011;10319;52.206;20.996;2022-12-07T08:42:23;24.90;;;8.77;;
20322;SDS011;10319;52.206;20.996;2022-12-07T08:44:52;23.47;;;9.17;;
20322;SDS011;10319;52.206;20.996;2022-12-07T08:47:17;24.87;;;9.43;;
20322;SDS011;10319;52.206;20.996;2022-12-07T08:49:43;25.13;;;10.37;;
20322;SDS011;10319;52.206;20.996;2022-12-07T08:52:09;27.23;;;9.90;;
20322;SDS011;10319;52.206;20.996;2022-12-07T08:54:35;27.53;;;9.60;;
20322;SDS011;10319;52.206;20.996;2022-12-07T08:57:01;25.50;;;9.50;;
20322;SDS011;10319;52.206;20.996;2022-12-07T08:59:27;24.60;;;9.50;;
20322;SDS011;10319;52.206;20.996;2022-12-07T09:01:53;23.30;;;8.97;;
20322;SDS011;10319;52.206;20.996;2022-12-07T09:04:18;25.00;;;9.37;;
20322;SDS011;10319;52.206;20.996;2022-12-07T09:06:44;25.83;;;9.47;;
20322;SDS011;10319;52.206;20.996;2022-12-07T09:09:09;23.23;;;9.17;;
20322;SDS011;10319;52.206;20.996;2022-12-07T09:11:35;22.83;;;9.23;;
20322;SDS011;10319;52.206;20.996;2022-12-07T09:14:00;24.03;;;9.80;;
20322;SDS011;10319;52.206;20.996;2022-12-07T09:16:25;24.47;;;9.40;;
20322;SDS011;10319;52.206;20.996;2022-12-07T09:18:51;22.97;;;8.73;;
20322;SDS011;10319;52.206;20.996;2022-12-07T09:21:16;22.63;;;9.40;;
20322;SDS011;10319;52.206;20.996;2022-12-07T09:23:41;24.33;;;9.37;;
20322;SDS011;10319;52.206;20.996;2022-12-07T09:26:07;22.90;;;9.60;;
20322;SDS011;10319;52.206;20.996;2022-12-07T09:28:32;23.97;;;9.37;;
20322;SDS011;10319;52.206;20.996;2022-12-07T09:30:57;22.27;;;8.50;;
20322;SDS011;10319;52.206;20.996;2022-12-07T09:33:23;24.87;;;9.50;;
20322;SDS011;10319;52.206;20.996;2022-12-07T09:35:48;24.40;;;9.40;;
20322;SDS011;10319;52.206;20.996;2022-12-07T09:38:14;25.73;;;10.47;;
20322;SDS011;10319;52.206;20.996;2022-12-07T09:40:40;26.50;;;10.37;;
20322;SDS011;10319;52.206;20.996;2022-12-07T09:43:10;23.37;;;10.10;;
20322;SDS011;10319;52.206;20.996;2022-12-07T09:45:36;23.10;;;9.43;;
20322;SDS011;10319;52.206;20.996;2022-12-07T09:48:02;26.37;;;9.90;;
20322;SDS011;10319;52.206;20.996;2022-12-07T09:50:28;24.53;;;10.43;;
20322;SDS011;10319;52.206;20.996;2022-12-07T09:52:54;24.67;;;9.30;;
20322;SDS011;10319;52.206;20.996;2022-12-07T09:55:24;26.80;;;9.67;;
20322;SDS011;10319;52.206;20.996;2022-12-07T09:57:50;26.23;;;9.43;;
20322;SDS011;10319;52.206;20.996;2022-12-07T10:00:18;25.50;;;9.30;;
20322;SDS011;10319;52.206;20.996;2022-12-07T10:02:48;23.83;;;8.83;;
20322;SDS011;10319;52.206;20.996;2022-12-07T10:05:16;24.53;;;9.40;;
20322;SDS011;10319;52.206;20.996;2022-12-07T10:07:41;25.60;;;8.73;;
20322;SDS011;10319;52.206;20.996;2022-12-07T10:10:12;22.87;;;9.57;;
20322;SDS011;10319;52.206;20.996;2022-12-07T10:15:22;25.77;;;9.43;;
20322;SDS011;10319;52.206;20.996;2022-12-07T10:17:51;24.63;;;9.33;;
20322;SDS011;10319;52.206;20.996;2022-12-07T10:20:18;22.27;;;9.53;;
20322;SDS011;10319;52.206;20.996;2022-12-07T10:25:21;26.03;;;9.67;;
20322;SDS011;10319;52.206;20.996;2022-12-07T10:30:27;23.60;;;9.20;;
20322;SDS011;10319;52.206;20.996;2022-12-07T10:32:53;22.90;;;9.50;;
20322;SDS011;10319;52.206;20.996;2022-12-07T10:37:47;23.03;;;8.70;;
20322;SDS011;10319;52.206;20.996;2022-12-07T10:45:34;25.37;;;9.83;;
20322;SDS011;10319;52.206;20.996;2022-12-07T10:50:29;22.97;;;9.03;;
20322;SDS011;10319;52.206;20.996;2022-12-07T10:53:09;21.53;;;8.27;;
20322;SDS011;10319;52.206;20.996;2022-12-07T11:06:10;21.57;;;8.80;;
20322;SDS011;10319;52.206;20.996;2022-12-07T11:08:42;22.97;;;9.17;;
20322;SDS011;10319;52.206;20.996;2022-12-07T11:17:43;22.17;;;9.23;;
20322;SDS011;10319;52.206;20.996;2022-12-07T11:22:17;22.97;;;9.60;;
20322;SDS011;10319;52.206;20.996;2022-12-07T11:34:57;24.17;;;11.63;;
20322;SDS011;10319;52.206;20.996;2022-12-07T11:37:31;23.30;;;10.13;;
20322;SDS011;10319;52.206;20.996;2022-12-07T11:45:30;21.33;;;9.40;;
20322;SDS011;10319;52.206;20.996;2022-12-07T11:48:15;21.90;;;9.00;;
20322;SDS011;10319;52.206;20.996;2022-12-07T11:50:43;20.77;;;9.20;;
20322;SDS011;10319;52.206;20.996;2022-12-07T11:58:19;20.90;;;8.97;;
20322;SDS011;10319;52.206;20.996;2022-12-07T12:00:47;22.67;;;9.47;;
20322;SDS011;10319;52.206;20.996;2022-12-07T12:03:14;21.10;;;9.13;;
20322;SDS011;10319;52.206;20.996;2022-12-07T12:05:41;21.33;;;8.60;;
20322;SDS011;10319;52.206;20.996;2022-12-07T12:10:37;20.63;;;8.67;;
20322;SDS011;10319;52.206;20.996;2022-12-07T12:24:01;20.03;;;8.27;;
20322;SDS011;10319;52.206;20.996;2022-12-07T12:26:29;19.93;;;8.37;;
20322;SDS011;10319;52.206;20.996;2022-12-07T12:33:50;20.07;;;8.80;;
20322;SDS011;10319;52.206;20.996;2022-12-07T12:44:08;22.30;;;9.60;;
20322;SDS011;10319;52.206;20.996;2022-12-07T12:51:45;21.53;;;9.03;;
20322;SDS011;10319;52.206;20.996;2022-12-07T12:54:15;21.83;;;9.13;;
20322;SDS011;10319;52.206;20.996;2022-12-07T12:56:55;21.40;;;8.07;;
20322;SDS011;10319;52.206;20.996;2022-12-07T12:59:25;19.13;;;7.47;;
20322;SDS011;10319;52.206;20.996;2022-12-07T13:02:35;17.70;;;6.93;;
20322;SDS011;10319;52.206;20.996;2022-12-07T13:07:47;18.43;;;7.27;;
20322;SDS011;10319;52.206;20.996;2022-12-07T13:09:59;17.67;;;7.17;;
20322;SDS011;10319;52.206;20.996;2022-12-07T13:12:24;19.03;;;7.53;;
20322;SDS011;10319;52.206;20.996;2022-12-07T13:14:54;19.03;;;7.57;;
20322;SDS011;10319;52.206;20.996;2022-12-07T13:20:01;16.60;;;6.70;;
20322;SDS011;10319;52.206;20.996;2022-12-07T13:27:26;18.23;;;7.40;;
20322;SDS011;10319;52.206;20.996;2022-12-07T13:29:52;18.97;;;7.10;;
20322;SDS011;10319;52.206;20.996;2022-12-07T13:32:22;17.43;;;6.87;;
20322;SDS011;10319;52.206;20.996;2022-12-07T13:34:48;18.50;;;7.10;;
20322;SDS011;10319;52.206;20.996;2022-12-07T13:37:14;17.40;;;7.20;;
20322;SDS011;10319;52.206;20.996;2022-12-07T13:39:59;19.47;;;7.93;;
20322;SDS011;10319;52.206;20.996;2022-12-07T13:42:28;18.33;;;7.37;;
20322;SDS011;10319;52.206;20.996;2022-12-07T13:44:54;18.60;;;7.47;;
20322;SDS011;10319;52.206;20.996;2022-12-07T13:49:49;19.33;;;7.57;;
20322;SDS011;10319;52.206;20.996;2022-12-07T13:52:16;18.70;;;7.87;;
20322;SDS011;10319;52.206;20.996;2022-12-07T13:54:48;19.10;;;8.10;;
20322;SDS011;10319;52.206;20.996;2022-12-07T13:57:15;20.50;;;8.57;;
20322;SDS011;10319;52.206;20.996;2022-12-07T13:59:40;17.67;;;7.67;;
20322;SDS011;10319;52.206;20.996;2022-12-07T14:02:25;19.60;;;8.27;;
20322;SDS011;10319;52.206;20.996;2022-12-07T14:04:51;19.20;;;7.67;;
20322;SDS011;10319;52.206;20.996;2022-12-07T14:09:53;19.47;;;7.83;;
20322;SDS011;10319;52.206;20.996;2022-12-07T14:12:18;18.10;;;7.30;;
20322;SDS011;10319;52.206;20.996;2022-12-07T14:14:46;17.93;;;7.80;;
20322;SDS011;10319;52.206;20.996;2022-12-07T14:17:16;18.20;;;7.33;;
20322;SDS011;10319;52.206;20.996;2022-12-07T14:22:26;19.03;;;8.10;;
20322;SDS011;10319;52.206;20.996;2022-12-07T14:25:43;20.70;;;8.40;;
20322;SDS011;10319;52.206;20.996;2022-12-07T14:27:38;18.40;;;8.23;;
20322;SDS011;10319;52.206;20.996;2022-12-07T14:30:04;20.00;;;9.00;;
20322;SDS011;10319;52.206;20.996;2022-12-07T14:32:30;18.27;;;8.57;;
20322;SDS011;10319;52.206;20.996;2022-12-07T14:35:03;20.63;;;8.63;;
20322;SDS011;10319;52.206;20.996;2022-12-07T14:37:29;20.53;;;8.67;;
20322;SDS011;10319;52.206;20.996;2022-12-07T14:39:54;20.40;;;8.67;;
20322;SDS011;10319;52.206;20.996;2022-12-07T14:42:19;20.70;;;9.27;;
20322;SDS011;10319;52.206;20.996;2022-12-07T14:44:45;20.03;;;8.50;;
20322;SDS011;10319;52.206;20.996;2022-12-07T14:47:10;19.33;;;8.67;;
20322;SDS011;10319;52.206;20.996;2022-12-07T14:49:36;20.57;;;8.80;;
20322;SDS011;10319;52.206;20.996;2022-12-07T14:52:01;20.83;;;8.77;;
20322;SDS011;10319;52.206;20.996;2022-12-07T14:54:27;23.47;;;9.57;;
20322;SDS011;10319;52.206;20.996;2022-12-07T14:56:54;18.23;;;7.87;;
20322;SDS011;10319;52.206;20.996;2022-12-07T14:59:19;22.20;;;9.33;;
20322;SDS011;10319;52.206;20.996;2022-12-07T15:01:45;20.87;;;8.87;;
20322;SDS011;10319;52.206;20.996;2022-12-07T15:04:10;22.90;;;9.53;;
20322;SDS011;10319;52.206;20.996;2022-12-07T15:06:35;20.10;;;8.70;;
20322;SDS011;10319;52.206;20.996;2022-12-07T15:09:00;21.13;;;9.00;;
20322;SDS011;10319;52.206;20.996;2022-12-07T15:11:26;20.53;;;8.73;;
20322;SDS011;10319;52.206;20.996;2022-12-07T15:13:51;21.70;;;9.63;;
20322;SDS011;10319;52.206;20.996;2022-12-07T15:16:36;21.77;;;9.03;;
20322;SDS011;10319;52.206;20.996;2022-12-07T15:19:02;20.63;;;8.70;;
20322;SDS011;10319;52.206;20.996;2022-12-07T15:21:27;21.37;;;9.30;;
20322;SDS011;10319;52.206;20.996;2022-12-07T15:23:52;21.00;;;9.43;;
20322;SDS011;10319;52.206;20.996;2022-12-07T15:26:18;20.07;;;8.70;;
20322;SDS011;10319;52.206;20.996;2022-12-07T15:28:43;22.03;;;9.57;;
20322;SDS011;10319;52.206;20.996;2022-12-07T15:31:11;22.13;;;9.07;;
20322;SDS011;10319;52.206;20.996;2022-12-07T15:33:36;22.10;;;9.37;;
20322;SDS011;10319;52.206;20.996;2022-12-07T15:36:02;22.27;;;9.40;;
20322;SDS011;10319;52.206;20.996;2022-12-07T15:38:27;22.00;;;9.00;;
20322;SDS011;10319;52.206;20.996;2022-12-07T15:40:53;23.03;;;9.90;;
20322;SDS011;10319;52.206;20.996;2022-12-07T15:43:18;20.60;;;9.23;;
20322;SDS011;10319;52.206;20.996;2022-12-07T15:46:02;22.50;;;9.90;;
20322;SDS011;10319;52.206;20.996;2022-12-07T15:48:28;22.80;;;9.53;;
20322;SDS011;10319;52.206;20.996;2022-12-07T15:50:53;20.63;;;9.13;;
20322;SDS011;10319;52.206;20.996;2022-12-07T15:53:18;23.20;;;9.37;;
20322;SDS011;10319;52.206;20.996;2022-12-07T15:55:43;22.53;;;9.40;;
20322;SDS011;10319;52.206;20.996;2022-12-07T15:58:08;21.03;;;8.97;;
20322;SDS011;10319;52.206;20.996;2022-12-07T16:00:34;26.70;;;9.83;;
20322;SDS011;10319;52.206;20.996;2022-12-07T16:02:59;21.63;;;8.83;;
20322;SDS011;10319;52.206;20.996;2022-12-07T16:05:24;22.30;;;9.50;;
20322;SDS011;10319;52.206;20.996;2022-12-07T16:07:49;20.50;;;8.63;;
20322;SDS011;10319;52.206;20.996;2022-12-07T16:10:15;22.27;;;8.73;;
20322;SDS011;10319;52.206;20.996;2022-12-07T16:12:40;20.43;;;8.00;;
20322;SDS011;10319;52.206;20.996;2022-12-07T16:15:05;20.03;;;8.77;;
20322;SDS011;10319;52.206;20.996;2022-12-07T16:17:31;20.93;;;9.33;;
20322;SDS011;10319;52.206;20.996;2022-12-07T16:19:56;23.40;;;9.50;;
20322;SDS011;10319;52.206;20.996;2022-12-07T16:22:22;22.53;;;9.17;;
20322;SDS011;10319;52.206;20.996;2022-12-07T16:24:47;24.27;;;9.40;;